Time;durP1;ratioP1;P1;durP2;ratioP2;P2;SDS_P1;SDS_P2;PMS_P1;PMS_P2;Temp;Humidity;BMP_temperature;BMP_pressure;BME280_temperature;BME280_humidity;BME280_pressure;Samples;Min_cycle;Max_cycle;Signal;HPM_P1;HPM_P2
2021/07/19 00:00:00;;;;;;;4.43;2.92;;;16.10;76.70;;;;;;4941513;28;97229;-40
2021/07/19 00:02:33;;;;;;;5.10;3.38;;;16.10;77.20;;;;;;4936935;28;95999;-40
2021/07/19 00:05:06;;;;;;;4.35;3.45;;;16.10;76.10;;;;;;4940213;28;95901;-38
2021/07/19 00:07:37;;;;;;;6.25;3.28;;;16.20;76.40;;;;;;4939394;28;96792;-39
2021/07/19 00:10:11;;;;;;;4.75;2.78;;;16.20;76.40;;;;;;4941072;28;95969;-40
2021/07/19 00:12:42;;;;;;;5.38;3.35;;;16.30;76.50;;;;;;4935456;28;95281;-38
2021/07/19 00:15:33;;;;;;;4.07;2.30;;;16.30;76.60;;;;;;4940398;28;95349;-38
2021/07/19 00:18:05;;;;;;;3.03;2.70;;;16.40;76.60;;;;;;4935231;28;102583;-46
2021/07/19 00:20:36;;;;;;;3.55;2.90;;;16.40;76.40;;;;;;4956282;28;97136;-39
2021/07/19 00:23:07;;;;;;;4.07;2.83;;;16.50;76.40;;;;;;4941031;28;97086;-38
2021/07/19 00:25:39;;;;;;;3.88;2.78;;;16.50;76.90;;;;;;4942953;28;95944;-38
2021/07/19 00:28:08;;;;;;;4.90;3.10;;;16.60;76.30;;;;;;4939657;28;98351;-40
2021/07/19 00:30:40;;;;;;;4.43;2.53;;;16.60;76.30;;;;;;4941839;28;95746;-39
2021/07/19 00:33:12;;;;;;;3.33;2.45;;;16.60;76.90;;;;;;4940739;28;95963;-41
2021/07/19 00:35:45;;;;;;;5.13;3.42;;;16.70;76.80;;;;;;4942317;28;95639;-45
2021/07/19 00:38:18;;;;;;;3.53;3.22;;;16.70;76.50;;;;;;4938353;28;95990;-40
2021/07/19 00:40:50;;;;;;;3.47;3.17;;;16.80;75.90;;;;;;4940348;28;95716;-42
2021/07/19 00:43:21;;;;;;;4.20;3.13;;;16.90;76.00;;;;;;4940494;28;95985;-39
2021/07/19 00:45:54;;;;;;;6.47;3.72;;;16.90;76.10;;;;;;4937466;28;95484;-40
2021/07/19 00:48:25;;;;;;;4.47;4.07;;;16.90;75.60;;;;;;4932175;28;96170;-39
2021/07/19 00:51:01;;;;;;;3.90;2.97;;;17.00;75.30;;;;;;4938161;28;95458;-41
2021/07/19 00:53:34;;;;;;;4.97;3.30;;;17.00;75.80;;;;;;4940542;28;96314;-38
2021/07/19 00:56:10;;;;;;;3.15;2.85;;;17.00;75.10;;;;;;4941357;28;102345;-39
2021/07/19 00:58:43;;;;;;;4.13;3.50;;;17.00;74.90;;;;;;4942348;28;98639;-38
2021/07/19 01:01:17;;;;;;;4.38;3.70;;;17.10;75.20;;;;;;4934994;28;97988;-40
2021/07/19 01:03:50;;;;;;;3.75;3.08;;;17.10;75.40;;;;;;4944110;28;96010;-40
2021/07/19 01:06:22;;;;;;;4.47;3.83;;;17.10;75.20;;;;;;4936610;28;95780;-40
2021/07/19 01:08:53;;;;;;;6.80;3.65;;;17.20;74.80;;;;;;4940412;28;97697;-38
2021/07/19 01:11:25;;;;;;;4.37;3.50;;;17.10;74.90;;;;;;4935781;28;96609;-38
2021/07/19 01:13:56;;;;;;;3.70;2.95;;;17.20;74.80;;;;;;4942570;28;96028;-39
2021/07/19 01:16:30;;;;;;;4.40;3.25;;;17.10;73.50;;;;;;4937240;28;95277;-38
2021/07/19 01:19:07;;;;;;;4.85;3.30;;;17.10;73.80;;;;;;4943945;28;96887;-40
2021/07/19 01:22:03;;;;;;;8.57;3.08;;;17.10;74.40;;;;;;4941797;28;95778;-47
2021/07/19 01:25:07;;;;;;;5.10;2.40;;;17.10;74.40;;;;;;4943296;28;95796;-47
2021/07/19 01:27:58;;;;;;;3.63;3.00;;;17.10;75.00;;;;;;4943191;28;95904;-47
2021/07/19 01:30:30;;;;;;;5.47;2.25;;;17.20;74.10;;;;;;4934572;28;96209;-47
2021/07/19 01:33:06;;;;;;;3.00;2.25;;;17.20;74.10;;;;;;4940914;28;98402;-47
2021/07/19 01:35:40;;;;;;;3.90;2.30;;;17.20;73.80;;;;;;4943226;28;95988;-47
2021/07/19 01:38:13;;;;;;;4.47;2.60;;;17.20;73.70;;;;;;4945745;28;95425;-47
2021/07/19 01:40:52;;;;;;;3.70;2.42;;;17.30;73.60;;;;;;4940758;28;98536;-47
2021/07/19 01:43:25;;;;;;;2.90;1.65;;;17.20;73.40;;;;;;4943600;28;96344;-47
2021/07/19 01:45:57;;;;;;;2.58;1.80;;;17.30;73.20;;;;;;4937925;28;96050;-47
2021/07/19 01:48:32;;;;;;;2.00;1.77;;;17.30;73.00;;;;;;4951824;28;96593;-47
2021/07/19 01:51:07;;;;;;;5.45;2.35;;;17.20;72.90;;;;;;4936615;28;96206;-47
2021/07/19 01:53:49;;;;;;;1.75;1.65;;;17.20;73.20;;;;;;4940028;28;95706;-47
2021/07/19 01:56:22;;;;;;;4.30;1.90;;;17.20;73.10;;;;;;4944982;28;98518;-47
2021/07/19 01:58:56;;;;;;;1.70;1.55;;;17.20;73.10;;;;;;4946920;28;95834;-47
2021/07/19 02:01:32;;;;;;;1.70;1.60;;;17.20;73.00;;;;;;4937822;28;96216;-47
2021/07/19 02:04:05;;;;;;;2.17;1.48;;;17.10;72.90;;;;;;4942976;28;96069;-46
2021/07/19 02:06:42;;;;;;;3.83;1.70;;;17.10;73.10;;;;;;4945767;28;96325;-46
2021/07/19 02:09:15;;;;;;;2.92;1.55;;;17.20;73.10;;;;;;4937306;28;95804;-47
2021/07/19 02:11:58;;;;;;;2.05;1.85;;;17.20;73.20;;;;;;4935275;28;96090;-47
2021/07/19 02:14:33;;;;;;;1.50;1.23;;;17.30;73.00;;;;;;4943197;28;96107;-38
2021/07/19 02:17:12;;;;;;;1.50;1.40;;;17.50;73.00;;;;;;4936632;28;96023;-37
2021/07/19 02:19:48;;;;;;;2.47;1.55;;;17.60;72.80;;;;;;4946174;28;95364;-38
2021/07/19 02:22:24;;;;;;;3.50;1.30;;;17.80;72.70;;;;;;4940793;28;96676;-37
2021/07/19 02:25:13;;;;;;;1.20;1.10;;;17.90;72.60;;;;;;4941715;28;95697;-38
2021/07/19 02:27:52;;;;;;;1.50;1.38;;;18.00;72.30;;;;;;4940195;28;95831;-38
2021/07/19 02:30:26;;;;;;;1.75;0.80;;;18.10;72.30;;;;;;4938809;28;95819;-47
2021/07/19 02:33:00;;;;;;;1.48;1.00;;;18.30;72.10;;;;;;4942192;28;102784;-47
2021/07/19 02:35:36;;;;;;;1.67;1.33;;;18.30;72.10;;;;;;4943623;28;97925;-47
2021/07/19 02:38:08;;;;;;;;;;;18.40;71.90;;;;;;4940985;28;96070;-47
2021/07/19 02:40:55;;;;;;;1.75;1.27;;;18.50;71.90;;;;;;4940302;28;96561;-38
2021/07/19 02:43:27;;;;;;;1.25;1.08;;;18.60;71.90;;;;;;4939280;28;98664;-38
2021/07/19 02:46:02;;;;;;;1.30;1.00;;;18.70;72.00;;;;;;4939595;28;97885;-39
2021/07/19 02:48:36;;;;;;;1.02;0.90;;;18.80;71.60;;;;;;4943577;28;96408;-38
2021/07/19 02:51:12;;;;;;;1.90;0.98;;;19.00;71.70;;;;;;4953381;28;95303;-47
2021/07/19 02:53:52;;;;;;;1.17;1.08;;;19.10;71.50;;;;;;4966339;28;97034;-47
2021/07/19 02:56:23;;;;;;;1.23;1.10;;;19.20;71.60;;;;;;4953898;28;96068;-48
2021/07/19 02:58:55;;;;;;;0.82;0.82;;;19.30;71.50;;;;;;4949649;28;96421;-48
2021/07/19 03:01:28;;;;;;;1.00;0.90;;;19.30;71.20;;;;;;4960072;28;96305;-48
2021/07/19 03:04:02;;;;;;;1.35;0.98;;;19.40;71.00;;;;;;4970753;28;96102;-46
2021/07/19 03:06:38;;;;;;;1.15;0.85;;;19.40;70.70;;;;;;4972374;28;97705;-47
2021/07/19 03:09:14;;;;;;;0.80;0.80;;;19.50;70.70;;;;;;4952192;28;95741;-46
2021/07/19 03:11:51;;;;;;;0.63;0.63;;;19.50;70.50;;;;;;4971630;28;96408;-39
2021/07/19 03:14:33;;;;;;;1.92;0.80;;;19.60;70.30;;;;;;4954751;28;99106;-38
2021/07/19 03:17:08;;;;;;;1.90;0.75;;;19.70;69.80;;;;;;4968342;28;96171;-36
2021/07/19 03:19:43;;;;;;;0.80;0.80;;;19.70;69.80;;;;;;4966015;28;95830;-36
2021/07/19 03:22:17;;;;;;;0.80;0.70;;;19.80;69.90;;;;;;4974505;28;95906;-44
2021/07/19 03:25:04;;;;;;;2.13;0.90;;;19.80;69.90;;;;;;4966648;28;97431;-45
2021/07/19 03:27:40;;;;;;;1.20;1.10;;;19.80;69.80;;;;;;4970708;28;95899;-45
2021/07/19 03:30:13;;;;;;;0.70;0.70;;;19.90;69.90;;;;;;4965254;28;95471;-46
2021/07/19 03:32:50;;;;;;;1.00;0.90;;;19.90;69.70;;;;;;4943614;28;96652;-45
2021/07/19 03:35:26;;;;;;;3.25;0.90;;;19.90;69.70;;;;;;4939056;28;98431;-46
2021/07/19 03:38:01;;;;;;;1.90;1.38;;;19.90;68.60;;;;;;4940175;28;98041;-46
2021/07/19 03:40:57;;;;;;;4.47;1.23;;;19.90;69.40;;;;;;4939304;28;96671;-49
2021/07/19 03:43:36;;;;;;;1.08;1.05;;;19.90;69.30;;;;;;4941856;28;96042;-47
2021/07/19 03:46:08;;;;;;;1.95;1.05;;;20.00;69.50;;;;;;4934375;28;99161;-46
2021/07/19 03:48:39;;;;;;;1.13;0.90;;;20.00;69.70;;;;;;4934094;28;97015;-46
2021/07/19 03:51:11;;;;;;;1.20;1.10;;;19.90;69.80;;;;;;4941192;28;96557;-46
2021/07/19 03:53:44;;;;;;;1.55;1.27;;;19.90;69.90;;;;;;4942453;28;95930;-47
2021/07/19 03:56:16;;;;;;;1.13;0.88;;;19.80;70.20;;;;;;4939262;28;98738;-45
2021/07/19 03:58:47;;;;;;;1.20;1.10;;;19.80;70.50;;;;;;4942501;28;96460;-45
2021/07/19 04:01:19;;;;;;;0.80;0.80;;;19.70;70.60;;;;;;4936109;28;96949;-46
2021/07/19 04:04:04;;;;;;;1.38;1.27;;;19.60;70.80;;;;;;4943955;28;96122;-46
2021/07/19 04:06:39;;;;;;;2.25;1.00;;;19.60;71.10;;;;;;4936143;28;96444;-38
2021/07/19 04:09:09;;;;;;;1.48;1.38;;;19.60;71.10;;;;;;4958152;28;97048;-39
2021/07/19 04:11:41;;;;;;;1.10;1.00;;;19.60;71.30;;;;;;4935994;28;96332;-36
2021/07/19 04:14:17;;;;;;;1.02;0.95;;;19.50;71.30;;;;;;4942470;28;95863;-36
2021/07/19 04:16:51;;;;;;;1.83;1.00;;;19.50;71.70;;;;;;4935221;28;96047;-36
2021/07/19 04:19:27;;;;;;;1.10;0.88;;;19.50;71.80;;;;;;4942779;28;95508;-36
2021/07/19 04:22:00;;;;;;;1.30;1.00;;;19.40;71.70;;;;;;4938595;28;96928;-37
2021/07/19 04:25:07;;;;;;;2.38;1.05;;;19.40;71.60;;;;;;4938644;28;96327;-38
2021/07/19 04:27:42;;;;;;;1.17;0.93;;;19.40;71.80;;;;;;4938621;28;98278;-37
2021/07/19 04:30:15;;;;;;;0.82;0.73;;;19.40;72.10;;;;;;4939139;28;95897;-45
2021/07/19 04:32:54;;;;;;;1.70;1.60;;;19.30;72.20;;;;;;4932552;28;96763;-45
2021/07/19 04:35:26;;;;;;;;;;;19.30;72.30;;;;;;4943652;28;95963;-46
2021/07/19 04:37:59;;;;;;;0.85;0.85;;;19.30;72.20;;;;;;4941216;28;96230;-45
2021/07/19 04:40:31;;;;;;;1.13;0.70;;;19.30;72.30;;;;;;4938868;28;95772;-45
2021/07/19 04:43:02;;;;;;;;;;;19.30;72.40;;;;;;4939851;28;96137;-45
2021/07/19 04:45:33;;;;;;;1.85;0.80;;;19.20;72.40;;;;;;4940365;28;96724;-45
2021/07/19 04:48:03;;;;;;;2.05;0.95;;;19.20;72.60;;;;;;4931003;28;96762;-47
2021/07/19 04:50:34;;;;;;;;;;;19.20;72.60;;;;;;4923922;28;95942;-40
2021/07/19 04:53:13;;;;;;;0.77;0.77;;;19.20;72.60;;;;;;4945599;28;95999;-40
2021/07/19 04:55:57;;;;;;;1.80;1.20;;;19.20;72.60;;;;;;4947605;28;97022;-48
2021/07/19 04:58:29;;;;;;;1.17;1.08;;;18.90;67.40;;;;;;4943678;28;96602;-42
2021/07/19 05:01:09;;;;;;;1.45;1.30;;;18.60;68.00;;;;;;4941442;28;96110;-41
2021/07/19 05:03:46;;;;;;;3.50;2.72;;;18.30;68.40;;;;;;4943319;28;95863;-41
2021/07/19 05:06:19;;;;;;;4.25;1.95;;;18.20;69.00;;;;;;4944897;28;96240;-41
2021/07/19 05:08:50;;;;;;;4.00;2.53;;;18.10;69.60;;;;;;4938289;28;96287;-41
2021/07/19 05:11:24;;;;;;;3.95;1.92;;;17.90;69.90;;;;;;4945464;28;95896;-41
2021/07/19 05:13:57;;;;;;;2.58;2.00;;;17.90;70.10;;;;;;4944409;28;95382;-41
2021/07/19 05:16:31;;;;;;;3.40;1.90;;;17.80;70.20;;;;;;4938200;28;97133;-41
2021/07/19 05:19:08;;;;;;;3.97;2.30;;;17.80;70.60;;;;;;4945974;28;96020;-41
2021/07/19 05:21:41;;;;;;;3.78;2.47;;;17.80;70.50;;;;;;4944449;28;95836;-41
2021/07/19 05:24:13;;;;;;;5.80;2.15;;;17.80;70.50;;;;;;4945119;28;95868;-42
2021/07/19 05:26:49;;;;;;;;;;;17.70;70.60;;;;;;4944948;28;95850;-41
2021/07/19 05:29:22;;;;;;;4.65;2.72;;;17.60;70.60;;;;;;4946430;28;96133;-41
2021/07/19 05:31:53;;;;;;;;;;;17.60;71.00;;;;;;4932762;28;97831;-41
2021/07/19 05:34:24;;;;;;;4.40;2.30;;;17.60;71.10;;;;;;4945870;28;95257;-42
2021/07/19 05:36:55;;;;;;;3.93;2.50;;;17.60;71.00;;;;;;4942223;28;96035;-41
2021/07/19 05:39:27;;;;;;;5.55;2.53;;;17.60;71.00;;;;;;4943876;28;97361;-41
2021/07/19 05:41:59;;;;;;;3.78;2.30;;;17.50;71.10;;;;;;4943320;28;95839;-42
2021/07/19 05:44:30;;;;;;;2.90;2.38;;;17.50;71.10;;;;;;4946410;28;95946;-41
2021/07/19 05:47:03;;;;;;;5.28;2.67;;;17.50;71.20;;;;;;4934975;28;95976;-41
2021/07/19 05:49:34;;;;;;;3.20;2.15;;;17.40;71.20;;;;;;4941996;28;96777;-42
2021/07/19 05:52:05;;;;;;;3.60;2.55;;;17.40;71.30;;;;;;4944047;28;95792;-41
2021/07/19 05:54:35;;;;;;;;;;;17.30;71.50;;;;;;4946674;28;95934;-41
2021/07/19 05:57:08;;;;;;;2.78;2.10;;;17.30;71.60;;;;;;4943459;28;95971;-41
2021/07/19 05:59:39;;;;;;;3.55;2.60;;;17.30;71.70;;;;;;4947316;28;96392;-42
2021/07/19 06:02:10;;;;;;;4.15;2.58;;;17.20;71.70;;;;;;4937914;28;95753;-41
2021/07/19 06:04:42;;;;;;;3.90;2.65;;;17.20;71.90;;;;;;4946706;28;96770;-42
2021/07/19 06:07:12;;;;;;;2.40;2.00;;;17.10;71.80;;;;;;4943739;28;96957;-41
2021/07/19 06:09:42;;;;;;;2.85;2.13;;;17.10;71.90;;;;;;4946131;28;96096;-41
2021/07/19 06:12:13;;;;;;;4.43;2.35;;;17.10;72.00;;;;;;4940457;28;96263;-41
2021/07/19 06:14:45;;;;;;;2.55;1.75;;;17.10;72.00;;;;;;4945429;28;95829;-42
2021/07/19 06:17:17;;;;;;;2.72;2.17;;;17.00;72.10;;;;;;4938604;28;95705;-41
2021/07/19 06:19:50;;;;;;;3.65;2.17;;;17.00;72.10;;;;;;4945526;28;97231;-41
2021/07/19 06:22:21;;;;;;;3.67;2.13;;;17.00;72.10;;;;;;4941967;28;96530;-41
2021/07/19 06:24:54;;;;;;;2.72;2.17;;;17.00;72.10;;;;;;4946091;28;95907;-41
2021/07/19 06:27:26;;;;;;;2.72;1.90;;;17.00;72.20;;;;;;4942872;28;97847;-41
2021/07/19 06:29:57;;;;;;;2.60;1.98;;;16.90;72.20;;;;;;4943867;28;96805;-40
2021/07/19 06:32:32;;;;;;;2.40;2.17;;;16.90;72.20;;;;;;4938364;28;96548;-41
2021/07/19 06:35:06;;;;;;;3.17;2.03;;;16.90;72.20;;;;;;4946084;28;95827;-41
2021/07/19 06:37:39;;;;;;;3.85;1.98;;;16.90;72.20;;;;;;4942721;28;96534;-41
2021/07/19 06:40:11;;;;;;;2.90;2.15;;;16.90;72.20;;;;;;4940296;28;98061;-41
2021/07/19 06:42:42;;;;;;;2.22;1.85;;;16.90;72.30;;;;;;4942245;28;96372;-41
2021/07/19 06:45:14;;;;;;;2.20;1.85;;;16.90;72.30;;;;;;4944188;28;95386;-41
2021/07/19 06:47:45;;;;;;;3.20;2.50;;;16.80;72.30;;;;;;4932764;28;95973;-41
2021/07/19 06:50:15;;;;;;;2.65;1.80;;;16.80;72.30;;;;;;4942074;28;96025;-41
2021/07/19 06:52:46;;;;;;;2.45;1.92;;;16.80;72.30;;;;;;4943875;28;96173;-41
2021/07/19 06:55:18;;;;;;;2.92;2.05;;;16.70;72.40;;;;;;4945770;28;96801;-41
2021/07/19 06:57:49;;;;;;;2.10;1.88;;;16.80;72.40;;;;;;4946819;28;95265;-41
2021/07/19 07:00:21;;;;;;;2.92;1.92;;;16.80;72.40;;;;;;4940684;28;97799;-41
2021/07/19 07:02:54;;;;;;;2.20;1.80;;;16.70;72.40;;;;;;4943003;28;103153;-41
2021/07/19 07:05:29;;;;;;;2.97;1.63;;;16.70;72.40;;;;;;4943644;28;98015;-41
2021/07/19 07:07:59;;;;;;;2.60;1.42;;;16.70;72.50;;;;;;4946045;28;95866;-42
2021/07/19 07:10:31;;;;;;;2.60;1.83;;;16.70;72.50;;;;;;4942632;28;98391;-42
2021/07/19 07:13:08;;;;;;;3.05;1.73;;;16.70;72.60;;;;;;4943939;28;96280;-42
2021/07/19 07:15:40;;;;;;;2.83;1.85;;;16.70;72.50;;;;;;4939018;28;96841;-41
2021/07/19 07:18:12;;;;;;;1.95;1.70;;;16.70;72.30;;;;;;4942441;28;96124;-42
2021/07/19 07:20:43;;;;;;;1.67;1.58;;;16.80;72.40;;;;;;4940624;28;96325;-41
2021/07/19 07:23:14;;;;;;;2.45;1.92;;;16.70;72.30;;;;;;4944150;28;96555;-42
2021/07/19 07:25:47;;;;;;;2.15;1.20;;;16.70;72.30;;;;;;4939310;28;95944;-42
2021/07/19 07:28:16;;;;;;;1.50;1.35;;;16.70;72.40;;;;;;4944839;28;96139;-41
2021/07/19 07:30:47;;;;;;;2.20;1.63;;;16.70;72.60;;;;;;4936977;28;96448;-41
2021/07/19 07:33:19;;;;;;;3.35;1.55;;;16.70;72.60;;;;;;4944516;28;98336;-41
2021/07/19 07:35:51;;;;;;;2.50;1.48;;;16.70;72.60;;;;;;4940182;28;95780;-40
2021/07/19 07:38:23;;;;;;;2.40;1.77;;;16.70;72.70;;;;;;4937384;28;96536;-42
2021/07/19 07:40:55;;;;;;;1.73;1.35;;;16.80;73.40;;;;;;4940471;28;96475;-41
2021/07/19 07:43:31;;;;;;;2.42;1.67;;;16.80;73.50;;;;;;4943790;28;95865;-41
2021/07/19 07:46:02;;;;;;;5.20;1.60;;;16.90;73.40;;;;;;4931329;28;95436;-42
2021/07/19 07:48:32;;;;;;;4.37;1.93;;;16.90;73.50;;;;;;4933418;28;96017;-40
2021/07/19 07:51:05;;;;;;;9.10;1.43;;;16.80;73.80;;;;;;4940516;28;96743;-41
2021/07/19 07:53:36;;;;;;;3.67;1.50;;;16.90;73.40;;;;;;4942880;28;96317;-40
2021/07/19 07:56:07;;;;;;;;;;;16.90;73.30;;;;;;4942968;28;95684;-40
2021/07/19 07:58:38;;;;;;;1.85;1.40;;;16.90;73.30;;;;;;4947424;28;96904;-40
2021/07/19 08:01:11;;;;;;;1.38;1.23;;;16.90;73.20;;;;;;4936784;28;95881;-41
2021/07/19 08:03:42;;;;;;;2.15;1.50;;;16.90;73.10;;;;;;4943721;28;95853;-42
2021/07/19 08:06:12;;;;;;;1.27;1.17;;;16.90;72.90;;;;;;4940811;28;96024;-42
2021/07/19 08:08:42;;;;;;;1.75;1.30;;;17.00;72.80;;;;;;4940593;28;95843;-40
2021/07/19 08:11:12;;;;;;;2.55;1.50;;;17.00;72.80;;;;;;4938239;28;95892;-40
2021/07/19 08:13:43;;;;;;;1.80;1.70;;;17.00;72.60;;;;;;4943669;28;95882;-40
2021/07/19 08:16:15;;;;;;;4.13;1.85;;;17.00;72.50;;;;;;4938890;28;95542;-40
2021/07/19 08:18:46;;;;;;;1.70;1.25;;;17.00;72.40;;;;;;4953541;28;96526;-40
2021/07/19 08:21:18;;;;;;;3.17;1.50;;;17.10;72.30;;;;;;4949590;28;96674;-40
2021/07/19 08:23:49;;;;;;;2.20;1.10;;;17.00;72.00;;;;;;4951342;28;95736;-48
2021/07/19 08:26:19;;;;;;;1.40;1.30;;;17.00;72.00;;;;;;4952662;28;95687;-48
2021/07/19 08:28:51;;;;;;;1.85;1.40;;;17.00;72.10;;;;;;4955154;28;96047;-47
2021/07/19 08:31:23;;;;;;;1.55;1.40;;;17.00;72.00;;;;;;4958829;28;96674;-48
2021/07/19 08:33:56;;;;;;;1.60;1.50;;;17.00;72.00;;;;;;4972716;28;95716;-48
2021/07/19 08:36:27;;;;;;;3.35;1.15;;;17.00;72.00;;;;;;4976602;28;96041;-48
2021/07/19 08:38:59;;;;;;;1.75;1.30;;;17.00;72.00;;;;;;4972673;28;95428;-48
2021/07/19 08:41:31;;;;;;;1.67;1.38;;;17.00;72.00;;;;;;4975613;28;96743;-48
2021/07/19 08:44:06;;;;;;;1.20;1.10;;;17.10;72.00;;;;;;4971712;28;95469;-48
2021/07/19 08:46:39;;;;;;;1.45;1.35;;;17.10;72.00;;;;;;4967872;28;95749;-48
2021/07/19 08:49:11;;;;;;;3.25;1.42;;;17.10;71.90;;;;;;4966981;28;95846;-41
2021/07/19 08:51:41;;;;;;;;;;;17.10;72.00;;;;;;4975618;28;97131;-38
2021/07/19 08:54:13;;;;;;;1.43;1.10;;;17.10;72.00;;;;;;4974438;28;96080;-38
2021/07/19 08:56:46;;;;;;;1.67;1.27;;;17.10;72.50;;;;;;4975154;28;95794;-38
2021/07/19 08:59:19;;;;;;;1.40;1.20;;;17.10;73.40;;;;;;4972640;28;96073;-40
2021/07/19 09:01:54;;;;;;;2.00;1.10;;;17.10;72.80;;;;;;4971633;28;96074;-40
2021/07/19 09:04:26;;;;;;;1.95;1.25;;;17.20;71.90;;;;;;4973751;28;97059;-40
2021/07/19 09:06:57;;;;;;;2.83;1.40;;;17.20;71.40;;;;;;4977903;28;95349;-40
2021/07/19 09:09:33;;;;;;;1.85;1.00;;;17.20;71.50;;;;;;4974096;28;96417;-40
2021/07/19 09:12:07;;;;;;;2.22;1.58;;;17.10;71.50;;;;;;4975461;28;96697;-40
2021/07/19 09:14:47;;;;;;;2.40;1.42;;;17.10;71.50;;;;;;4972786;28;96112;-40
2021/07/19 09:17:26;;;;;;;1.23;1.13;;;17.10;71.70;;;;;;4962433;28;95853;-41
2021/07/19 09:19:57;;;;;;;2.45;1.42;;;17.10;71.70;;;;;;4974082;28;95864;-40
2021/07/19 09:22:32;;;;;;;1.33;1.20;;;17.10;71.70;;;;;;4974991;28;96601;-40
2021/07/19 09:25:17;;;;;;;2.88;1.10;;;17.10;71.80;;;;;;4972987;28;95866;-40
2021/07/19 09:28:08;;;;;;;2.40;1.23;;;17.00;71.80;;;;;;4975618;28;95903;-40
2021/07/19 09:30:44;;;;;;;1.30;1.20;;;17.00;71.90;;;;;;4967008;28;95806;-41
2021/07/19 09:33:19;;;;;;;1.50;1.20;;;17.00;72.10;;;;;;4972834;28;96215;-48
2021/07/19 09:35:52;;;;;;;1.08;1.00;;;17.00;72.20;;;;;;4971905;28;96046;-48
2021/07/19 09:38:30;;;;;;;0.95;0.93;;;17.00;72.30;;;;;;4974236;28;95798;-48
2021/07/19 09:41:02;;;;;;;1.90;1.15;;;17.00;72.30;;;;;;4971840;28;95636;-48
2021/07/19 09:43:34;;;;;;;1.15;1.05;;;17.00;72.30;;;;;;4975495;28;96646;-48
2021/07/19 09:46:07;;;;;;;1.92;1.27;;;17.00;72.30;;;;;;4966255;28;95855;-48
2021/07/19 09:48:38;;;;;;;2.22;1.42;;;16.90;72.30;;;;;;4962933;28;95893;-48
2021/07/19 09:51:08;;;;;;;1.77;1.00;;;16.90;72.80;;;;;;4971885;28;96109;-47
2021/07/19 09:53:44;;;;;;;2.78;1.17;;;16.90;72.20;;;;;;4977291;28;96136;-48
2021/07/19 09:56:15;;;;;;;1.20;1.05;;;16.90;72.30;;;;;;4973317;28;102489;-48
2021/07/19 09:58:51;;;;;;;1.00;0.88;;;16.90;72.40;;;;;;4975891;28;95318;-48
2021/07/19 10:01:34;;;;;;;1.55;1.00;;;16.80;72.40;;;;;;4966869;28;96255;-48
2021/07/19 10:04:07;;;;;;;1.23;0.82;;;16.80;72.40;;;;;;4975334;28;96596;-48
2021/07/19 10:06:41;;;;;;;0.70;0.70;;;16.80;72.40;;;;;;4967425;28;97549;-48
2021/07/19 10:09:13;;;;;;;1.00;0.90;;;16.90;72.40;;;;;;4976739;28;95809;-48
2021/07/19 10:11:49;;;;;;;1.35;0.88;;;16.90;72.40;;;;;;4970644;28;96003;-47
2021/07/19 10:14:33;;;;;;;1.55;1.13;;;16.90;73.10;;;;;;4974350;28;96201;-47
2021/07/19 10:17:06;;;;;;;0.70;0.70;;;16.80;72.40;;;;;;4965866;28;101342;-48
2021/07/19 10:19:43;;;;;;;1.67;1.00;;;16.80;72.40;;;;;;4974841;28;95252;-48
2021/07/19 10:22:15;;;;;;;1.15;0.80;;;16.80;72.30;;;;;;4971460;28;95942;-47
2021/07/19 10:24:47;;;;;;;;;;;16.80;72.40;;;;;;4973972;28;99260;-48
2021/07/19 10:27:24;;;;;;;1.13;0.90;;;16.80;72.40;;;;;;4971661;28;95945;-48
2021/07/19 10:29:55;;;;;;;2.05;1.30;;;16.80;72.40;;;;;;4974340;28;95882;-48
2021/07/19 10:32:26;;;;;;;0.68;0.65;;;16.80;72.40;;;;;;4966385;28;98488;-47
2021/07/19 10:34:57;;;;;;;0.77;0.60;;;16.80;72.40;;;;;;4973598;28;96277;-48
2021/07/19 10:37:56;;;;;;;0.80;0.80;;;16.80;72.40;;;;;;4967564;28;95860;-48
2021/07/19 10:40:31;;;;;;;0.70;0.70;;;16.80;72.40;;;;;;4970835;28;95793;-40
2021/07/19 10:43:11;;;;;;;1.50;1.27;;;16.80;72.40;;;;;;4967779;28;96385;-48
2021/07/19 10:45:49;;;;;;;3.13;1.02;;;16.80;72.40;;;;;;4968720;28;96736;-48
2021/07/19 10:48:32;;;;;;;2.17;1.10;;;16.80;72.50;;;;;;4962489;28;96136;-48
2021/07/19 10:51:21;;;;;;;1.70;0.98;;;16.70;72.50;;;;;;4974183;28;96483;-48
2021/07/19 10:53:54;;;;;;;1.35;0.80;;;16.60;72.70;;;;;;4972861;28;95286;-40
2021/07/19 10:56:29;;;;;;;1.10;1.00;;;16.60;72.80;;;;;;4974277;28;96032;-48
2021/07/19 10:59:01;;;;;;;1.85;0.90;;;16.50;73.00;;;;;;4972932;28;96023;-36
2021/07/19 11:01:33;;;;;;;0.80;0.80;;;16.40;73.50;;;;;;4964759;28;96081;-35
2021/07/19 11:04:15;;;;;;;0.93;0.90;;;16.40;73.50;;;;;;4971996;28;95895;-38
2021/07/19 11:06:49;;;;;;;0.80;0.77;;;16.50;73.70;;;;;;4975078;28;96398;-36
2021/07/19 11:09:21;;;;;;;0.68;0.68;;;16.60;73.80;;;;;;4970140;28;96210;-36
2021/07/19 11:14:58;;;;;;;0.73;0.70;;;16.70;74.00;;;;;;4920598;28;97702;-37
2021/07/19 11:17:34;;;;;;;0.60;0.60;;;16.80;73.90;;;;;;4923115;28;96713;-38
2021/07/19 11:20:15;;;;;;;1.95;0.80;;;16.80;74.00;;;;;;4905637;28;96905;-41
2021/07/19 11:22:45;;;;;;;;;;;16.80;74.00;;;;;;4926766;28;96457;-41
2021/07/19 11:25:18;;;;;;;0.80;0.80;;;16.90;74.00;;;;;;4922144;28;96706;-38
2021/07/19 11:27:49;;;;;;;2.33;0.70;;;17.00;74.00;;;;;;4925829;28;96070;-38
2021/07/19 11:30:25;;;;;;;0.60;0.60;;;17.00;74.20;;;;;;4920769;28;96589;-37
2021/07/19 11:32:58;;;;;;;0.80;0.80;;;17.00;74.10;;;;;;4925382;28;96580;-40
2021/07/19 11:35:41;;;;;;;1.08;0.73;;;17.10;74.30;;;;;;4939329;28;95847;-36
2021/07/19 11:38:15;;;;;;;1.23;1.13;;;17.10;74.40;;;;;;4943864;28;96061;-37
2021/07/19 11:41:27;;;;;;;0.90;0.77;;;17.10;74.50;;;;;;4941289;28;96246;-40
2021/07/19 11:44:00;;;;;;;2.38;0.65;;;17.10;74.60;;;;;;4943930;28;95277;-35
2021/07/19 11:46:39;;;;;;;1.60;1.10;;;17.20;74.60;;;;;;4940775;28;95932;-38
2021/07/19 11:49:22;;;;;;;0.80;0.80;;;17.20;74.60;;;;;;4941333;28;96470;-38
2021/07/19 11:51:55;;;;;;;0.70;0.70;;;17.20;74.70;;;;;;4943973;28;96093;-35
2021/07/19 11:54:26;;;;;;;1.65;0.88;;;17.20;74.60;;;;;;4944232;28;95815;-37
2021/07/19 11:56:57;;;;;;;0.73;0.70;;;17.30;74.60;;;;;;4944517;28;95965;-35
2021/07/19 11:59:29;;;;;;;0.85;0.85;;;17.30;74.60;;;;;;4944101;28;95880;-36
2021/07/19 12:02:04;;;;;;;0.95;0.85;;;17.30;74.70;;;;;;4938242;28;95912;-37
2021/07/19 12:04:45;;;;;;;0.73;0.73;;;17.40;74.60;;;;;;4944630;28;95333;-37
2021/07/19 12:07:15;;;;;;;0.70;0.65;;;17.40;74.80;;;;;;4943516;28;95880;-37
2021/07/19 12:09:57;;;;;;;1.17;0.60;;;17.40;74.80;;;;;;4945857;28;96051;-37
2021/07/19 12:12:28;;;;;;;0.60;0.60;;;17.40;74.70;;;;;;4942752;28;96727;-38
2021/07/19 12:15:02;;;;;;;1.73;0.80;;;17.50;74.70;;;;;;4944979;28;96067;-37
2021/07/19 12:17:38;;;;;;;0.60;0.60;;;17.50;74.70;;;;;;4941498;28;97064;-36
2021/07/19 12:20:11;;;;;;;0.82;0.82;;;17.50;74.70;;;;;;4944762;28;95806;-36
2021/07/19 12:22:43;;;;;;;0.65;0.65;;;17.60;74.80;;;;;;4941154;28;96155;-37
2021/07/19 12:25:16;;;;;;;0.70;0.50;;;17.50;74.80;;;;;;4942400;28;95787;-36
2021/07/19 12:27:58;;;;;;;0.73;0.73;;;17.50;74.70;;;;;;4941133;28;95891;-36
2021/07/19 12:30:30;;;;;;;0.70;0.55;;;17.60;74.20;;;;;;4940216;28;95916;-39
2021/07/19 12:33:02;;;;;;;1.35;0.88;;;17.60;74.60;;;;;;4940438;28;96360;-46
2021/07/19 12:35:34;;;;;;;;;;;17.60;74.70;;;;;;4945018;28;96006;-45
2021/07/19 12:38:05;;;;;;;0.52;0.52;;;17.60;75.40;;;;;;4942352;28;95717;-45
2021/07/19 12:40:39;;;;;;;0.68;0.68;;;17.70;74.80;;;;;;4942078;28;96072;-45
2021/07/19 12:43:10;;;;;;;0.60;0.60;;;17.70;74.70;;;;;;4939599;28;96994;-46
2021/07/19 12:45:41;;;;;;;;;;;17.70;74.80;;;;;;4939352;28;96226;-46
2021/07/19 12:48:14;;;;;;;0.80;0.80;;;17.70;75.40;;;;;;4932256;28;96352;-45
2021/07/19 12:50:45;;;;;;;0.65;0.60;;;17.80;75.00;;;;;;4942420;28;99913;-49
2021/07/19 12:53:16;;;;;;;0.93;0.60;;;17.80;74.90;;;;;;4942057;28;95710;-46
2021/07/19 12:55:47;;;;;;;0.75;0.75;;;17.80;75.10;;;;;;4944778;28;96068;-45
2021/07/19 12:58:17;;;;;;;2.83;1.10;;;17.80;75.20;;;;;;4940872;28;96392;-46
2021/07/19 13:00:50;;;;;;;0.82;0.57;;;17.80;75.20;;;;;;4940019;28;97036;-46
2021/07/19 13:03:28;;;;;;;0.88;0.82;;;17.80;75.10;;;;;;4941366;28;96057;-38
2021/07/19 13:06:00;;;;;;;0.80;0.60;;;17.80;75.10;;;;;;4945819;28;95664;-40
2021/07/19 13:08:31;;;;;;;0.50;0.50;;;17.80;75.10;;;;;;4941934;28;95842;-36
2021/07/19 13:11:14;;;;;;;0.50;0.50;;;17.90;75.20;;;;;;4944431;28;95858;-38
2021/07/19 13:13:46;;;;;;;0.60;0.60;;;17.90;75.00;;;;;;4942161;28;96179;-39
2021/07/19 13:16:25;;;;;;;0.88;0.88;;;17.90;74.80;;;;;;4937510;28;96078;-39
2021/07/19 13:18:57;;;;;;;1.33;1.05;;;17.60;68.50;;;;;;4943263;28;96038;-39
2021/07/19 13:21:29;;;;;;;1.05;0.75;;;17.30;68.70;;;;;;4926546;28;97115;-39
2021/07/19 13:24:00;;;;;;;1.45;1.10;;;17.10;70.00;;;;;;4943263;28;96736;-39
2021/07/19 13:26:32;;;;;;;1.05;1.00;;;16.90;70.80;;;;;;4945696;28;95385;-39
2021/07/19 13:29:08;;;;;;;;;;;16.80;71.90;;;;;;4941525;28;96693;-39